sensor_id;sensor_type;location;lat;lon;timestamp;pressure;altitude;pressure_sealevel;temperature;humidity
54822;BME280;41299;43.546;16.426;2022-09-27T00:01:24;100515.44;;;17.67;100.00
54822;BME280;41299;43.546;16.426;2022-09-27T00:03:51;100510.41;;;17.61;100.00
54822;BME280;41299;43.546;16.426;2022-09-27T00:06:24;100499.22;;;17.58;100.00
54822;BME280;41299;43.546;16.426;2022-09-27T00:08:51;100501.94;;;17.53;100.00
54822;BME280;41299;43.546;16.426;2022-09-27T00:11:20;100495.13;;;17.47;100.00
54822;BME280;41299;43.546;16.426;2022-09-27T00:13:47;100493.44;;;17.46;100.00
54822;BME280;41299;43.546;16.426;2022-09-27T00:16:12;100488.25;;;17.45;100.00
54822;BME280;41299;43.546;16.426;2022-09-27T00:18:37;100488.50;;;17.35;100.00
54822;BME280;41299;43.546;16.426;2022-09-27T00:21:06;100481.50;;;17.37;100.00
54822;BME280;41299;43.546;16.426;2022-09-27T00:23:32;100476.69;;;17.22;100.00
54822;BME280;41299;43.546;16.426;2022-09-27T00:25:58;100475.81;;;17.21;100.00
54822;BME280;41299;43.546;16.426;2022-09-27T00:28:24;100476.94;;;17.12;100.00
54822;BME280;41299;43.546;16.426;2022-09-27T00:30:49;100472.72;;;17.08;100.00
54822;BME280;41299;43.546;16.426;2022-09-27T00:33:15;100478.00;;;17.05;100.00
54822;BME280;41299;43.546;16.426;2022-09-27T00:35:40;100482.28;;;17.06;100.00
54822;BME280;41299;43.546;16.426;2022-09-27T00:38:05;100465.09;;;16.99;100.00
54822;BME280;41299;43.546;16.426;2022-09-27T00:40:31;100463.38;;;16.98;100.00
54822;BME280;41299;43.546;16.426;2022-09-27T00:42:56;100454.56;;;17.04;100.00
54822;BME280;41299;43.546;16.426;2022-09-27T00:45:21;100457.88;;;17.10;100.00
54822;BME280;41299;43.546;16.426;2022-09-27T00:47:59;100454.38;;;17.11;100.00
54822;BME280;41299;43.546;16.426;2022-09-27T00:50:34;100454.38;;;17.11;100.00
54822;BME280;41299;43.546;16.426;2022-09-27T00:55:28;100438.66;;;17.16;100.00
54822;BME280;41299;43.546;16.426;2022-09-27T00:57:54;100439.56;;;17.13;100.00
54822;BME280;41299;43.546;16.426;2022-09-27T01:00:20;100437.03;;;17.10;100.00
54822;BME280;41299;43.546;16.426;2022-09-27T01:02:46;100440.53;;;17.09;100.00
54822;BME280;41299;43.546;16.426;2022-09-27T01:05:13;100439.66;;;17.10;100.00
54822;BME280;41299;43.546;16.426;2022-09-27T01:07:39;100435.41;;;17.06;100.00
54822;BME280;41299;43.546;16.426;2022-09-27T01:10:05;100433.66;;;17.07;100.00
54822;BME280;41299;43.546;16.426;2022-09-27T01:28:01;100431.25;;;16.97;100.00
54822;BME280;41299;43.546;16.426;2022-09-27T01:33:08;100430.41;;;16.97;100.00
54822;BME280;41299;43.546;16.426;2022-09-27T01:35:43;100427.69;;;17.03;100.00
54822;BME280;41299;43.546;16.426;2022-09-27T01:46:21;100421.34;;;17.13;100.00
54822;BME280;41299;43.546;16.426;2022-09-27T01:48:21;100423.03;;;17.15;100.00
54822;BME280;41299;43.546;16.426;2022-09-27T01:50:48;100414.31;;;17.16;100.00
54822;BME280;41299;43.546;16.426;2022-09-27T01:53:18;100414.38;;;17.14;100.00
54822;BME280;41299;43.546;16.426;2022-09-27T01:55:44;100407.31;;;17.18;100.00
54822;BME280;41299;43.546;16.426;2022-09-27T02:00:37;100403.84;;;17.19;100.00
54822;BME280;41299;43.546;16.426;2022-09-27T02:03:06;100395.00;;;17.23;100.00
54822;BME280;41299;43.546;16.426;2022-09-27T02:05:55;100395.00;;;17.23;100.00
54822;BME280;41299;43.546;16.426;2022-09-27T02:08:28;100395.19;;;17.17;100.00
54822;BME280;41299;43.546;16.426;2022-09-27T02:10:55;100396.06;;;17.17;100.00
54822;BME280;41299;43.546;16.426;2022-09-27T02:13:26;100397.78;;;17.17;100.00
54822;BME280;41299;43.546;16.426;2022-09-27T02:16:02;100396.88;;;17.18;100.00
54822;BME280;41299;43.546;16.426;2022-09-27T02:18:37;100394.41;;;17.13;100.00
54822;BME280;41299;43.546;16.426;2022-09-27T02:21:06;100389.22;;;17.13;100.00
54822;BME280;41299;43.546;16.426;2022-09-27T02:23:38;100386.47;;;17.18;100.00
54822;BME280;41299;43.546;16.426;2022-09-27T02:26:27;100389.94;;;17.18;100.00
54822;BME280;41299;43.546;16.426;2022-09-27T02:28:54;100385.72;;;17.12;100.00
54822;BME280;41299;43.546;16.426;2022-09-27T02:31:20;100382.38;;;17.09;100.00
54822;BME280;41299;43.546;16.426;2022-09-27T02:33:47;100371.22;;;17.04;100.00
54822;BME280;41299;43.546;16.426;2022-09-27T02:36:13;100376.53;;;16.99;100.00
54822;BME280;41299;43.546;16.426;2022-09-27T02:38:39;100384.44;;;16.96;100.00
54822;BME280;41299;43.546;16.426;2022-09-27T02:41:14;100376.63;;;16.96;100.00
54822;BME280;41299;43.546;16.426;2022-09-27T02:43:40;100380.19;;;16.92;100.00
54822;BME280;41299;43.546;16.426;2022-09-27T02:59:29;100358.16;;;17.05;100.00
54822;BME280;41299;43.546;16.426;2022-09-27T03:02:12;100362.56;;;17.03;100.00
54822;BME280;41299;43.546;16.426;2022-09-27T03:07:22;100360.75;;;17.05;100.00
54822;BME280;41299;43.546;16.426;2022-09-27T03:09:49;100353.84;;;17.04;100.00
54822;BME280;41299;43.546;16.426;2022-09-27T03:12:15;100350.34;;;17.05;100.00
54822;BME280;41299;43.546;16.426;2022-09-27T03:14:49;100349.50;;;17.05;100.00
54822;BME280;41299;43.546;16.426;2022-09-27T03:17:15;100339.25;;;16.97;100.00
54822;BME280;41299;43.546;16.426;2022-09-27T03:19:40;100346.97;;;17.00;100.00
54822;BME280;41299;43.546;16.426;2022-09-27T03:22:05;100346.13;;;16.99;100.00
54822;BME280;41299;43.546;16.426;2022-09-27T03:24:31;100355.84;;;16.93;100.00
54822;BME280;41299;43.546;16.426;2022-09-27T03:26:56;100351.38;;;16.98;100.00
54822;BME280;41299;43.546;16.426;2022-09-27T03:29:22;100348.66;;;17.01;100.00
54822;BME280;41299;43.546;16.426;2022-09-27T03:31:48;100341.88;;;16.97;100.00
54822;BME280;41299;43.546;16.426;2022-09-27T03:34:13;100339.19;;;16.98;100.00
54822;BME280;41299;43.546;16.426;2022-09-27T03:36:38;100342.75;;;16.96;100.00
54822;BME280;41299;43.546;16.426;2022-09-27T03:39:04;100331.44;;;16.97;100.00
54822;BME280;41299;43.546;16.426;2022-09-27T03:41:29;100333.28;;;16.93;100.00
54822;BME280;41299;43.546;16.426;2022-09-27T03:43:54;100332.34;;;16.96;100.00
54822;BME280;41299;43.546;16.426;2022-09-27T03:46:24;100312.47;;;16.92;100.00
54822;BME280;41299;43.546;16.426;2022-09-27T03:48:49;100311.50;;;16.96;100.00
54822;BME280;41299;43.546;16.426;2022-09-27T03:51:14;100301.00;;;16.99;100.00
54822;BME280;41299;43.546;16.426;2022-09-27T03:53:39;100305.25;;;17.03;100.00
54822;BME280;41299;43.546;16.426;2022-09-27T03:56:05;100300.03;;;17.03;100.00
54822;BME280;41299;43.546;16.426;2022-09-27T03:58:30;100300.91;;;17.02;100.00
54822;BME280;41299;43.546;16.426;2022-09-27T04:00:55;100300.84;;;17.05;100.00
54822;BME280;41299;43.546;16.426;2022-09-27T04:03:20;100300.81;;;17.07;100.00
54822;BME280;41299;43.546;16.426;2022-09-27T04:05:46;100286.88;;;17.08;100.00
54822;BME280;41299;43.546;16.426;2022-09-27T04:08:11;100296.50;;;17.06;100.00
54822;BME280;41299;43.546;16.426;2022-09-27T04:10:37;100289.66;;;17.00;100.00
54822;BME280;41299;43.546;16.426;2022-09-27T04:13:03;100294.97;;;16.97;100.00
54822;BME280;41299;43.546;16.426;2022-09-27T04:15:28;100293.34;;;16.93;100.00
54822;BME280;41299;43.546;16.426;2022-09-27T04:17:54;100292.38;;;16.97;100.00
54822;BME280;41299;43.546;16.426;2022-09-27T04:20:19;100288.31;;;16.86;100.00
54822;BME280;41299;43.546;16.426;2022-09-27T04:22:44;100289.16;;;16.87;100.00
54822;BME280;41299;43.546;16.426;2022-09-27T04:25:10;100282.91;;;16.94;100.00
54822;BME280;41299;43.546;16.426;2022-09-27T04:27:36;100279.25;;;17.00;100.00
54822;BME280;41299;43.546;16.426;2022-09-27T04:30:01;100274.13;;;16.97;100.00
54822;BME280;41299;43.546;16.426;2022-09-27T04:32:27;100260.94;;;17.05;100.00
54822;BME280;41299;43.546;16.426;2022-09-27T04:34:52;100256.56;;;17.05;100.00
54822;BME280;41299;43.546;16.426;2022-09-27T04:37:36;100253.91;;;17.07;100.00
54822;BME280;41299;43.546;16.426;2022-09-27T04:40:02;100255.56;;;17.09;100.00
54822;BME280;41299;43.546;16.426;2022-09-27T04:42:27;100251.16;;;17.11;100.00
54822;BME280;41299;43.546;16.426;2022-09-27T04:44:52;100253.69;;;17.15;100.00
54822;BME280;41299;43.546;16.426;2022-09-27T04:47:18;100246.72;;;17.15;100.00
54822;BME280;41299;43.546;16.426;2022-09-27T04:49:45;100243.22;;;17.16;100.00
54822;BME280;41299;43.546;16.426;2022-09-27T04:52:10;100237.16;;;17.16;100.00
54822;BME280;41299;43.546;16.426;2022-09-27T04:54:36;100239.72;;;17.17;100.00
54822;BME280;41299;43.546;16.426;2022-09-27T04:57:02;100247.50;;;17.19;100.00
54822;BME280;41299;43.546;16.426;2022-09-27T04:59:27;100240.38;;;17.24;100.00
54822;BME280;41299;43.546;16.426;2022-09-27T05:01:52;100242.81;;;17.30;100.00
54822;BME280;41299;43.546;16.426;2022-09-27T05:04:18;100233.84;;;17.39;100.00
54822;BME280;41299;43.546;16.426;2022-09-27T05:06:43;100231.09;;;17.44;100.00
54822;BME280;41299;43.546;16.426;2022-09-27T05:09:08;100217.81;;;17.51;100.00
54822;BME280;41299;43.546;16.426;2022-09-27T05:11:33;100221.97;;;17.57;100.00
54822;BME280;41299;43.546;16.426;2022-09-27T05:14:02;100226.19;;;17.61;100.00
54822;BME280;41299;43.546;16.426;2022-09-27T05:16:27;100218.28;;;17.64;100.00
54822;BME280;41299;43.546;16.426;2022-09-27T05:18:52;100204.13;;;17.72;100.00
54822;BME280;41299;43.546;16.426;2022-09-27T05:21:18;100202.13;;;17.80;100.00
54822;BME280;41299;43.546;16.426;2022-09-27T05:23:43;100200.13;;;17.88;100.00
54822;BME280;41299;43.546;16.426;2022-09-27T05:26:08;100198.22;;;17.93;100.00
54822;BME280;41299;43.546;16.426;2022-09-27T05:28:33;100187.88;;;17.90;100.00
54822;BME280;41299;43.546;16.426;2022-09-27T05:31:01;100182.59;;;17.92;100.00
54822;BME280;41299;43.546;16.426;2022-09-27T05:33:27;100201.69;;;17.92;100.00
54822;BME280;41299;43.546;16.426;2022-09-27T05:35:56;100199.09;;;17.92;100.00
54822;BME280;41299;43.546;16.426;2022-09-27T05:38:22;100193.72;;;17.97;100.00
54822;BME280;41299;43.546;16.426;2022-09-27T05:40:47;100194.34;;;18.04;100.00
54822;BME280;41299;43.546;16.426;2022-09-27T05:43:15;100189.78;;;18.12;100.00
54822;BME280;41299;43.546;16.426;2022-09-27T05:45:40;100192.25;;;18.15;100.00
54822;BME280;41299;43.546;16.426;2022-09-27T05:48:07;100184.34;;;18.18;100.00
54822;BME280;41299;43.546;16.426;2022-09-27T05:50:32;100190.47;;;18.17;100.00
54822;BME280;41299;43.546;16.426;2022-09-27T05:52:58;100179.97;;;18.19;100.00
54822;BME280;41299;43.546;16.426;2022-09-27T05:55:23;100179.06;;;18.20;100.00
54822;BME280;41299;43.546;16.426;2022-09-27T05:57:55;100175.38;;;18.26;100.00
54822;BME280;41299;43.546;16.426;2022-09-27T06:00:20;100193.09;;;18.41;100.00
54822;BME280;41299;43.546;16.426;2022-09-27T06:02:51;100211.06;;;18.51;100.00
54822;BME280;41299;43.546;16.426;2022-09-27T06:05:17;100196.09;;;18.56;100.00
54822;BME280;41299;43.546;16.426;2022-09-27T06:07:43;100201.19;;;18.59;100.00
54822;BME280;41299;43.546;16.426;2022-09-27T06:10:09;100204.19;;;18.48;100.00
54822;BME280;41299;43.546;16.426;2022-09-27T06:12:35;100207.28;;;18.34;100.00
54822;BME280;41299;43.546;16.426;2022-09-27T06:15:00;100199.09;;;18.19;100.00
54822;BME280;41299;43.546;16.426;2022-09-27T06:17:25;100197.69;;;18.09;100.00
54822;BME280;41299;43.546;16.426;2022-09-27T06:19:50;100197.03;;;18.02;100.00
54822;BME280;41299;43.546;16.426;2022-09-27T06:22:16;100198.97;;;17.97;100.00
54822;BME280;41299;43.546;16.426;2022-09-27T06:24:41;100203.44;;;17.93;100.00
54822;BME280;41299;43.546;16.426;2022-09-27T06:27:06;100193.13;;;17.89;100.00
54822;BME280;41299;43.546;16.426;2022-09-27T06:29:32;100189.78;;;17.85;100.00
54822;BME280;41299;43.546;16.426;2022-09-27T06:31:59;100205.59;;;17.80;100.00
54822;BME280;41299;43.546;16.426;2022-09-27T06:34:24;100226.50;;;17.79;100.00
54822;BME280;41299;43.546;16.426;2022-09-27T06:36:49;100231.72;;;17.79;100.00
54822;BME280;41299;43.546;16.426;2022-09-27T06:39:15;100224.06;;;17.74;100.00
54822;BME280;41299;43.546;16.426;2022-09-27T06:41:40;100211.41;;;17.62;100.00
54822;BME280;41299;43.546;16.426;2022-09-27T06:44:08;100218.66;;;17.52;100.00
54822;BME280;41299;43.546;16.426;2022-09-27T06:46:34;100220.56;;;17.47;100.00
54822;BME280;41299;43.546;16.426;2022-09-27T06:49:04;100226.13;;;17.36;100.00
54822;BME280;41299;43.546;16.426;2022-09-27T06:51:31;100215.03;;;17.29;100.00
54822;BME280;41299;43.546;16.426;2022-09-27T06:53:56;100222.00;;;17.29;100.00
54822;BME280;41299;43.546;16.426;2022-09-27T06:56:22;100228.81;;;17.33;100.00
54822;BME280;41299;43.546;16.426;2022-09-27T06:58:47;100231.38;;;17.34;100.00
54822;BME280;41299;43.546;16.426;2022-09-27T07:01:31;100215.66;;;17.37;100.00
54822;BME280;41299;43.546;16.426;2022-09-27T07:03:56;100210.31;;;17.40;100.00
54822;BME280;41299;43.546;16.426;2022-09-27T07:06:22;100210.41;;;17.39;100.00
54822;BME280;41299;43.546;16.426;2022-09-27T07:08:52;100208.53;;;17.43;100.00
54822;BME280;41299;43.546;16.426;2022-09-27T07:11:17;100207.19;;;17.58;100.00
54822;BME280;41299;43.546;16.426;2022-09-27T07:13:43;100205.13;;;17.67;100.00
54822;BME280;41299;43.546;16.426;2022-09-27T07:16:14;100210.75;;;17.82;100.00
54822;BME280;41299;43.546;16.426;2022-09-27T07:18:39;100208.47;;;17.98;100.00
54822;BME280;41299;43.546;16.426;2022-09-27T07:21:05;100211.44;;;18.14;100.00
54822;BME280;41299;43.546;16.426;2022-09-27T07:23:30;100217.94;;;18.28;100.00
54822;BME280;41299;43.546;16.426;2022-09-27T07:25:55;100212.16;;;18.43;100.00
54822;BME280;41299;43.546;16.426;2022-09-27T07:28:27;100209.41;;;18.48;100.00
54822;BME280;41299;43.546;16.426;2022-09-27T07:30:55;100211.09;;;18.49;100.00
54822;BME280;41299;43.546;16.426;2022-09-27T07:33:21;100200.72;;;18.48;100.00
54822;BME280;41299;43.546;16.426;2022-09-27T07:35:46;100211.06;;;18.51;100.00
54822;BME280;41299;43.546;16.426;2022-09-27T07:38:11;100226.13;;;18.42;100.00
54822;BME280;41299;43.546;16.426;2022-09-27T07:40:38;100243.50;;;18.18;100.00
54822;BME280;41299;43.546;16.426;2022-09-27T07:43:04;100225.13;;;17.40;100.00
54822;BME280;41299;43.546;16.426;2022-09-27T07:45:29;100224.56;;;16.68;100.00
54822;BME280;41299;43.546;16.426;2022-09-27T07:47:55;100223.47;;;16.12;100.00
54822;BME280;41299;43.546;16.426;2022-09-27T07:50:20;100225.44;;;15.66;100.00
54822;BME280;41299;43.546;16.426;2022-09-27T07:52:46;100243.56;;;15.30;100.00
54822;BME280;41299;43.546;16.426;2022-09-27T07:55:14;100229.44;;;15.04;100.00
54822;BME280;41299;43.546;16.426;2022-09-27T07:57:39;100220.34;;;14.82;100.00
54822;BME280;41299;43.546;16.426;2022-09-27T08:00:06;100232.28;;;14.45;100.00
54822;BME280;41299;43.546;16.426;2022-09-27T08:02:32;100238.41;;;14.41;100.00
54822;BME280;41299;43.546;16.426;2022-09-27T08:04:58;100243.44;;;14.49;100.00
54822;BME280;41299;43.546;16.426;2022-09-27T08:07:23;100214.78;;;14.55;100.00
54822;BME280;41299;43.546;16.426;2022-09-27T08:09:48;100198.34;;;14.56;100.00
54822;BME280;41299;43.546;16.426;2022-09-27T08:12:14;100218.06;;;14.64;100.00
54822;BME280;41299;43.546;16.426;2022-09-27T08:14:40;100245.56;;;14.74;100.00
54822;BME280;41299;43.546;16.426;2022-09-27T08:17:05;100253.19;;;14.85;100.00
54822;BME280;41299;43.546;16.426;2022-09-27T08:19:30;100252.94;;;14.96;100.00
54822;BME280;41299;43.546;16.426;2022-09-27T08:21:55;100255.44;;;15.01;100.00
54822;BME280;41299;43.546;16.426;2022-09-27T08:24:21;100251.91;;;15.05;100.00
54822;BME280;41299;43.546;16.426;2022-09-27T08:26:46;100264.06;;;15.04;100.00
54822;BME280;41299;43.546;16.426;2022-09-27T08:29:11;100275.16;;;15.11;100.00
54822;BME280;41299;43.546;16.426;2022-09-27T08:31:37;100285.50;;;15.14;100.00
54822;BME280;41299;43.546;16.426;2022-09-27T08:34:02;100292.41;;;15.13;100.00
54822;BME280;41299;43.546;16.426;2022-09-27T08:36:29;100300.03;;;15.23;100.00
54822;BME280;41299;43.546;16.426;2022-09-27T08:38:55;100291.91;;;15.38;100.00
54822;BME280;41299;43.546;16.426;2022-09-27T08:51:40;100304.81;;;15.42;100.00
54822;BME280;41299;43.546;16.426;2022-09-27T08:54:07;100303.13;;;15.41;100.00
54822;BME280;41299;43.546;16.426;2022-09-27T08:56:35;100299.72;;;15.38;100.00
54822;BME280;41299;43.546;16.426;2022-09-27T08:59:03;100284.81;;;15.45;100.00
54822;BME280;41299;43.546;16.426;2022-09-27T09:01:31;100282.19;;;15.47;100.00
54822;BME280;41299;43.546;16.426;2022-09-27T09:03:59;100301.13;;;15.52;100.00
54822;BME280;41299;43.546;16.426;2022-09-27T09:19:13;100279.72;;;16.16;100.00
54822;BME280;41299;43.546;16.426;2022-09-27T09:34:43;100292.41;;;16.64;100.00
54822;BME280;41299;43.546;16.426;2022-09-27T09:37:20;100298.81;;;16.83;100.00
54822;BME280;41299;43.546;16.426;2022-09-27T09:39:55;100297.88;;;16.86;100.00
54822;BME280;41299;43.546;16.426;2022-09-27T09:44:53;100296.50;;;17.06;100.00
54822;BME280;41299;43.546;16.426;2022-09-27T09:47:35;100292.78;;;17.15;100.00
54822;BME280;41299;43.546;16.426;2022-09-27T09:50:03;100286.47;;;17.22;100.00
54822;BME280;41299;43.546;16.426;2022-09-27T09:53:12;100287.19;;;17.27;100.00
54822;BME280;41299;43.546;16.426;2022-09-27T09:55:19;100291.66;;;17.52;100.00
54822;BME280;41299;43.546;16.426;2022-09-27T10:00:29;100286.47;;;17.79;100.00
54822;BME280;41299;43.546;16.426;2022-09-27T10:02:57;100289.31;;;18.00;100.00
54822;BME280;41299;43.546;16.426;2022-09-27T10:05:23;100291.16;;;18.23;100.00
54822;BME280;41299;43.546;16.426;2022-09-27T10:07:50;100285.59;;;18.34;100.00
54822;BME280;41299;43.546;16.426;2022-09-27T10:10:17;100269.59;;;18.43;100.00
54822;BME280;41299;43.546;16.426;2022-09-27T10:12:43;100270.03;;;18.56;100.00
54822;BME280;41299;43.546;16.426;2022-09-27T10:15:13;100264.34;;;18.69;100.00
54822;BME280;41299;43.546;16.426;2022-09-27T10:17:39;100249.00;;;18.85;100.00
54822;BME280;41299;43.546;16.426;2022-09-27T10:20:05;100244.53;;;19.12;100.00
54822;BME280;41299;43.546;16.426;2022-09-27T10:22:35;100250.66;;;19.34;100.00
54822;BME280;41299;43.546;16.426;2022-09-27T10:25:03;100241.69;;;19.63;100.00
54822;BME280;41299;43.546;16.426;2022-09-27T10:27:40;100237.28;;;19.86;100.00
54822;BME280;41299;43.546;16.426;2022-09-27T10:30:20;100239.16;;;20.26;100.00
54822;BME280;41299;43.546;16.426;2022-09-27T10:32:46;100223.13;;;20.53;100.00
54822;BME280;41299;43.546;16.426;2022-09-27T10:35:18;100233.91;;;20.86;100.00
54822;BME280;41299;43.546;16.426;2022-09-27T10:37:44;100226.34;;;20.79;100.00
54822;BME280;41299;43.546;16.426;2022-09-27T10:40:23;100228.03;;;20.80;100.00
54822;BME280;41299;43.546;16.426;2022-09-27T10:42:49;100235.59;;;20.48;100.00
54822;BME280;41299;43.546;16.426;2022-09-27T10:45:28;100274.22;;;20.22;100.00
54822;BME280;41299;43.546;16.426;2022-09-27T10:47:53;100295.38;;;19.72;100.00
54822;BME280;41299;43.546;16.426;2022-09-27T10:50:29;100319.88;;;18.99;100.00
54822;BME280;41299;43.546;16.426;2022-09-27T10:53:05;100321.66;;;17.94;100.00
54822;BME280;41299;43.546;16.426;2022-09-27T10:55:35;100336.75;;;17.25;100.00
54822;BME280;41299;43.546;16.426;2022-09-27T10:58:01;100342.88;;;16.58;100.00
54822;BME280;41299;43.546;16.426;2022-09-27T11:02:53;100312.63;;;16.19;100.00
54822;BME280;41299;43.546;16.426;2022-09-27T11:07:54;100316.28;;;16.12;100.00
54822;BME280;41299;43.546;16.426;2022-09-27T11:10:21;100318.72;;;16.18;100.00
54822;BME280;41299;43.546;16.426;2022-09-27T11:13:05;100320.16;;;16.30;100.00
54822;BME280;41299;43.546;16.426;2022-09-27T11:15:31;100322.69;;;16.33;100.00
54822;BME280;41299;43.546;16.426;2022-09-27T11:18:04;100323.22;;;16.46;100.00
54822;BME280;41299;43.546;16.426;2022-09-27T11:20:48;100321.06;;;16.62;100.00
54822;BME280;41299;43.546;16.426;2022-09-27T11:28:19;100316.66;;;16.97;100.00
54822;BME280;41299;43.546;16.426;2022-09-27T11:38:30;100300.03;;;17.02;100.00
54822;BME280;41299;43.546;16.426;2022-09-27T11:51:05;100288.22;;;17.21;100.00
54822;BME280;41299;43.546;16.426;2022-09-27T11:53:39;100293.28;;;17.28;100.00
54822;BME280;41299;43.546;16.426;2022-09-27T11:56:22;100301.50;;;17.42;100.00
54822;BME280;41299;43.546;16.426;2022-09-27T12:09:02;100309.31;;;18.28;100.00
54822;BME280;41299;43.546;16.426;2022-09-27T12:11:31;100303.66;;;18.40;100.00
54822;BME280;41299;43.546;16.426;2022-09-27T12:14:05;100309.47;;;18.49;100.00
54822;BME280;41299;43.546;16.426;2022-09-27T12:16:32;100294.69;;;18.73;100.00
54822;BME280;41299;43.546;16.426;2022-09-27T12:18:59;100300.66;;;19.00;100.00
54822;BME280;41299;43.546;16.426;2022-09-27T12:21:26;100289.41;;;19.24;100.00
54822;BME280;41299;43.546;16.426;2022-09-27T12:23:54;100291.72;;;19.32;100.00
54822;BME280;41299;43.546;16.426;2022-09-27T12:26:44;100301.66;;;19.46;100.00
54822;BME280;41299;43.546;16.426;2022-09-27T12:29:25;100293.00;;;19.44;100.00
54822;BME280;41299;43.546;16.426;2022-09-27T12:37:09;100276.09;;;19.52;100.00
54822;BME280;41299;43.546;16.426;2022-09-27T12:42:19;100268.78;;;19.38;100.00
54822;BME280;41299;43.546;16.426;2022-09-27T12:44:45;100255.38;;;19.48;100.00
54822;BME280;41299;43.546;16.426;2022-09-27T12:49:53;100263.78;;;19.56;100.00
54822;BME280;41299;43.546;16.426;2022-09-27T12:52:20;100254.31;;;19.30;100.00
54822;BME280;41299;43.546;16.426;2022-09-27T12:55:09;100248.88;;;19.12;100.00
54822;BME280;41299;43.546;16.426;2022-09-27T13:00:23;100254.84;;;19.16;100.00
54822;BME280;41299;43.546;16.426;2022-09-27T13:03:11;100259.34;;;19.12;100.00
54822;BME280;41299;43.546;16.426;2022-09-27T13:13:26;100269.47;;;19.44;100.00
54822;BME280;41299;43.546;16.426;2022-09-27T13:15:54;100268.13;;;19.56;100.00
54822;BME280;41299;43.546;16.426;2022-09-27T13:18:31;100263.00;;;19.52;100.00
54822;BME280;41299;43.546;16.426;2022-09-27T13:21:52;100259.28;;;19.60;100.00
54822;BME280;41299;43.546;16.426;2022-09-27T13:24:00;100271.84;;;19.72;100.00
54822;BME280;41299;43.546;16.426;2022-09-27T13:29:01;100266.00;;;19.65;100.00
54822;BME280;41299;43.546;16.426;2022-09-27T13:36:55;100265.16;;;19.65;100.00
54822;BME280;41299;43.546;16.426;2022-09-27T13:39:21;100264.25;;;19.66;100.00
54822;BME280;41299;43.546;16.426;2022-09-27T13:46:44;100269.34;;;19.69;100.00
54822;BME280;41299;43.546;16.426;2022-09-27T13:49:13;100263.06;;;19.73;100.00
54822;BME280;41299;43.546;16.426;2022-09-27T13:51:42;100262.72;;;19.83;100.00
54822;BME280;41299;43.546;16.426;2022-09-27T13:54:56;100257.88;;;19.94;100.00
54822;BME280;41299;43.546;16.426;2022-09-27T13:56:56;100262.91;;;20.00;100.00
54822;BME280;41299;43.546;16.426;2022-09-27T14:02:01;100262.09;;;19.98;100.00
54822;BME280;41299;43.546;16.426;2022-09-27T14:04:40;100252.50;;;19.99;100.00
54822;BME280;41299;43.546;16.426;2022-09-27T14:07:06;100257.66;;;20.00;100.00
54822;BME280;41299;43.546;16.426;2022-09-27T14:09:36;100259.47;;;19.98;100.00
54822;BME280;41299;43.546;16.426;2022-09-27T14:12:08;100246.72;;;19.90;100.00
54822;BME280;41299;43.546;16.426;2022-09-27T14:14:34;100246.50;;;19.95;100.00
54822;BME280;41299;43.546;16.426;2022-09-27T14:17:00;100249.94;;;19.97;100.00
54822;BME280;41299;43.546;16.426;2022-09-27T14:19:26;100248.22;;;19.96;100.00
54822;BME280;41299;43.546;16.426;2022-09-27T14:21:51;100251.50;;;20.01;100.00
54822;BME280;41299;43.546;16.426;2022-09-27T14:24:21;100254.84;;;20.05;100.00
54822;BME280;41299;43.546;16.426;2022-09-27T14:29:16;100252.94;;;20.09;100.00
54822;BME280;41299;43.546;16.426;2022-09-27T14:31:42;100247.72;;;20.09;100.00
54822;BME280;41299;43.546;16.426;2022-09-27T14:34:07;100251.13;;;20.11;100.00
54822;BME280;41299;43.546;16.426;2022-09-27T14:36:33;100248.56;;;20.09;100.00
54822;BME280;41299;43.546;16.426;2022-09-27T14:41:48;100249.28;;;20.13;100.00
54822;BME280;41299;43.546;16.426;2022-09-27T14:44:14;100245.91;;;20.11;100.00
54822;BME280;41299;43.546;16.426;2022-09-27T14:46:40;100246.38;;;19.98;100.00
54822;BME280;41299;43.546;16.426;2022-09-27T14:49:22;100251.84;;;19.92;100.00
54822;BME280;41299;43.546;16.426;2022-09-27T14:51:51;100250.53;;;19.82;100.00
54822;BME280;41299;43.546;16.426;2022-09-27T14:54:20;100261.31;;;19.74;100.00
54822;BME280;41299;43.546;16.426;2022-09-27T14:56:46;100261.50;;;19.69;100.00
54822;BME280;41299;43.546;16.426;2022-09-27T14:59:16;100261.38;;;19.72;100.00
54822;BME280;41299;43.546;16.426;2022-09-27T15:01:49;100270.00;;;19.74;100.00
54822;BME280;41299;43.546;16.426;2022-09-27T15:04:15;100262.34;;;19.70;100.00
54822;BME280;41299;43.546;16.426;2022-09-27T15:06:41;100259.69;;;19.71;100.00
54822;BME280;41299;43.546;16.426;2022-09-27T15:09:09;100260.53;;;19.72;100.00
54822;BME280;41299;43.546;16.426;2022-09-27T15:11:38;100264.09;;;19.69;100.00
54822;BME280;41299;43.546;16.426;2022-09-27T15:14:05;100265.16;;;19.65;100.00
54822;BME280;41299;43.546;16.426;2022-09-27T15:16:31;100269.63;;;19.61;100.00
54822;BME280;41299;43.546;16.426;2022-09-27T15:21:53;100260.28;;;19.56;100.00
54822;BME280;41299;43.546;16.426;2022-09-27T15:24:35;100261.25;;;19.53;100.00
54822;BME280;41299;43.546;16.426;2022-09-27T15:27:00;100256.09;;;19.51;100.00